sensor_id;sensor_type;location;lat;lon;timestamp;temperature;humidity
9987;DHT22;5033;46.310;11.214;2023-04-24T00:00:54;12.60;99.90
9987;DHT22;5033;46.310;11.214;2023-04-24T00:03:22;12.50;99.90
9987;DHT22;5033;46.310;11.214;2023-04-24T00:05:49;12.50;99.90
9987;DHT22;5033;46.310;11.214;2023-04-24T00:08:16;12.50;99.90
9987;DHT22;5033;46.310;11.214;2023-04-24T00:10:43;12.50;99.90
9987;DHT22;5033;46.310;11.214;2023-04-24T00:13:11;12.60;99.90
9987;DHT22;5033;46.310;11.214;2023-04-24T00:15:39;12.50;99.90
9987;DHT22;5033;46.310;11.214;2023-04-24T00:18:06;12.50;99.90
9987;DHT22;5033;46.310;11.214;2023-04-24T00:20:34;12.50;99.90
9987;DHT22;5033;46.310;11.214;2023-04-24T00:23:01;12.50;99.90
9987;DHT22;5033;46.310;11.214;2023-04-24T00:25:28;12.50;99.90
9987;DHT22;5033;46.310;11.214;2023-04-24T00:27:56;12.50;99.90
9987;DHT22;5033;46.310;11.214;2023-04-24T00:30:23;12.40;99.90
9987;DHT22;5033;46.310;11.214;2023-04-24T00:32:51;12.40;99.90
9987;DHT22;5033;46.310;11.214;2023-04-24T00:35:18;12.40;99.90
9987;DHT22;5033;46.310;11.214;2023-04-24T00:37:46;12.40;99.90
9987;DHT22;5033;46.310;11.214;2023-04-24T00:40:13;12.50;99.90
9987;DHT22;5033;46.310;11.214;2023-04-24T00:42:40;12.50;99.90
9987;DHT22;5033;46.310;11.214;2023-04-24T00:45:08;12.50;99.90
9987;DHT22;5033;46.310;11.214;2023-04-24T00:47:36;12.50;99.90
9987;DHT22;5033;46.310;11.214;2023-04-24T00:50:07;12.50;99.90
9987;DHT22;5033;46.310;11.214;2023-04-24T00:52:34;12.50;99.90
9987;DHT22;5033;46.310;11.214;2023-04-24T00:55:03;12.40;99.90
9987;DHT22;5033;46.310;11.214;2023-04-24T00:57:31;12.30;99.90
9987;DHT22;5033;46.310;11.214;2023-04-24T00:59:58;12.10;99.90
9987;DHT22;5033;46.310;11.214;2023-04-24T01:02:26;12.10;99.90
9987;DHT22;5033;46.310;11.214;2023-04-24T01:04:53;12.20;99.90
9987;DHT22;5033;46.310;11.214;2023-04-24T01:07:22;12.30;99.90
9987;DHT22;5033;46.310;11.214;2023-04-24T01:09:51;12.30;99.90
9987;DHT22;5033;46.310;11.214;2023-04-24T01:12:19;12.30;99.90
9987;DHT22;5033;46.310;11.214;2023-04-24T01:14:46;12.30;99.90
9987;DHT22;5033;46.310;11.214;2023-04-24T01:17:13;12.30;99.90
9987;DHT22;5033;46.310;11.214;2023-04-24T01:19:40;12.40;99.90
9987;DHT22;5033;46.310;11.214;2023-04-24T01:22:13;12.40;99.90
9987;DHT22;5033;46.310;11.214;2023-04-24T01:24:41;12.40;99.90
9987;DHT22;5033;46.310;11.214;2023-04-24T01:27:10;12.50;99.90
9987;DHT22;5033;46.310;11.214;2023-04-24T01:29:37;12.50;99.90
9987;DHT22;5033;46.310;11.214;2023-04-24T01:32:05;12.50;99.90
9987;DHT22;5033;46.310;11.214;2023-04-24T01:34:32;12.50;99.90
9987;DHT22;5033;46.310;11.214;2023-04-24T01:37:00;12.50;99.90
9987;DHT22;5033;46.310;11.214;2023-04-24T01:39:29;12.50;99.90
9987;DHT22;5033;46.310;11.214;2023-04-24T01:41:56;12.50;99.90
9987;DHT22;5033;46.310;11.214;2023-04-24T01:44:23;12.50;99.90
9987;DHT22;5033;46.310;11.214;2023-04-24T01:46:50;12.40;99.90
9987;DHT22;5033;46.310;11.214;2023-04-24T01:49:19;12.40;99.90
9987;DHT22;5033;46.310;11.214;2023-04-24T01:51:46;12.40;99.90
9987;DHT22;5033;46.310;11.214;2023-04-24T01:54:13;12.40;99.90
9987;DHT22;5033;46.310;11.214;2023-04-24T01:56:43;12.40;99.90
9987;DHT22;5033;46.310;11.214;2023-04-24T01:59:11;12.30;99.90
9987;DHT22;5033;46.310;11.214;2023-04-24T02:01:38;12.30;99.90
9987;DHT22;5033;46.310;11.214;2023-04-24T02:04:07;12.30;99.90
9987;DHT22;5033;46.310;11.214;2023-04-24T02:06:34;12.30;99.90
9987;DHT22;5033;46.310;11.214;2023-04-24T02:09:01;12.30;99.90
9987;DHT22;5033;46.310;11.214;2023-04-24T02:11:29;12.30;99.90
9987;DHT22;5033;46.310;11.214;2023-04-24T02:13:58;12.30;99.90
9987;DHT22;5033;46.310;11.214;2023-04-24T02:16:25;12.30;99.90
9987;DHT22;5033;46.310;11.214;2023-04-24T02:18:52;12.30;99.90
9987;DHT22;5033;46.310;11.214;2023-04-24T02:21:19;12.30;99.90
9987;DHT22;5033;46.310;11.214;2023-04-24T02:23:46;12.30;99.90
9987;DHT22;5033;46.310;11.214;2023-04-24T02:26:13;12.30;99.90
9987;DHT22;5033;46.310;11.214;2023-04-24T02:28:41;12.30;99.90
9987;DHT22;5033;46.310;11.214;2023-04-24T02:31:09;12.30;99.90
9987;DHT22;5033;46.310;11.214;2023-04-24T02:33:36;12.30;99.90
9987;DHT22;5033;46.310;11.214;2023-04-24T02:36:04;12.20;99.90
9987;DHT22;5033;46.310;11.214;2023-04-24T02:38:31;12.20;99.90
9987;DHT22;5033;46.310;11.214;2023-04-24T02:40:58;12.20;99.90
9987;DHT22;5033;46.310;11.214;2023-04-24T02:43:26;12.30;99.90
9987;DHT22;5033;46.310;11.214;2023-04-24T02:45:53;12.30;99.90
9987;DHT22;5033;46.310;11.214;2023-04-24T02:48:22;12.30;99.90
9987;DHT22;5033;46.310;11.214;2023-04-24T02:50:49;12.30;99.90
9987;DHT22;5033;46.310;11.214;2023-04-24T02:53:17;12.30;99.90
9987;DHT22;5033;46.310;11.214;2023-04-24T02:55:44;12.40;99.90
9987;DHT22;5033;46.310;11.214;2023-04-24T02:58:11;12.40;99.90
9987;DHT22;5033;46.310;11.214;2023-04-24T03:00:39;12.40;99.90
9987;DHT22;5033;46.310;11.214;2023-04-24T03:03:06;12.30;99.90
9987;DHT22;5033;46.310;11.214;2023-04-24T03:05:35;12.30;99.90
9987;DHT22;5033;46.310;11.214;2023-04-24T03:08:02;12.30;99.90
9987;DHT22;5033;46.310;11.214;2023-04-24T03:10:29;12.30;99.90
9987;DHT22;5033;46.310;11.214;2023-04-24T03:12:56;12.30;99.90
9987;DHT22;5033;46.310;11.214;2023-04-24T03:15:23;12.30;99.90
9987;DHT22;5033;46.310;11.214;2023-04-24T03:17:50;12.30;99.90
9987;DHT22;5033;46.310;11.214;2023-04-24T03:20:17;12.30;99.90
9987;DHT22;5033;46.310;11.214;2023-04-24T03:22:46;12.30;99.90
9987;DHT22;5033;46.310;11.214;2023-04-24T03:25:13;12.30;99.90
9987;DHT22;5033;46.310;11.214;2023-04-24T03:27:40;12.30;99.90
9987;DHT22;5033;46.310;11.214;2023-04-24T03:30:08;12.30;99.90
9987;DHT22;5033;46.310;11.214;2023-04-24T03:32:35;12.30;99.90
9987;DHT22;5033;46.310;11.214;2023-04-24T03:35:05;12.30;99.90
9987;DHT22;5033;46.310;11.214;2023-04-24T03:37:33;12.30;99.90
9987;DHT22;5033;46.310;11.214;2023-04-24T03:40:02;12.30;99.90
9987;DHT22;5033;46.310;11.214;2023-04-24T03:42:29;12.30;99.90
9987;DHT22;5033;46.310;11.214;2023-04-24T03:44:56;12.30;99.90
9987;DHT22;5033;46.310;11.214;2023-04-24T03:47:23;12.20;99.90
9987;DHT22;5033;46.310;11.214;2023-04-24T03:49:50;12.20;99.90
9987;DHT22;5033;46.310;11.214;2023-04-24T03:52:18;12.10;99.90
9987;DHT22;5033;46.310;11.214;2023-04-24T03:54:45;11.90;99.90
9987;DHT22;5033;46.310;11.214;2023-04-24T03:57:15;11.80;99.90
9987;DHT22;5033;46.310;11.214;2023-04-24T03:59:42;11.70;99.90
9987;DHT22;5033;46.310;11.214;2023-04-24T04:02:09;11.70;99.90
9987;DHT22;5033;46.310;11.214;2023-04-24T04:04:36;11.60;99.90
9987;DHT22;5033;46.310;11.214;2023-04-24T04:07:03;11.60;99.90
9987;DHT22;5033;46.310;11.214;2023-04-24T04:09:30;11.50;99.90
9987;DHT22;5033;46.310;11.214;2023-04-24T04:11:58;11.40;99.90
9987;DHT22;5033;46.310;11.214;2023-04-24T04:14:27;10.90;99.90
9987;DHT22;5033;46.310;11.214;2023-04-24T04:16:54;10.60;99.90
9987;DHT22;5033;46.310;11.214;2023-04-24T04:19:21;10.30;99.90
9987;DHT22;5033;46.310;11.214;2023-04-24T04:21:48;10.10;99.90
9987;DHT22;5033;46.310;11.214;2023-04-24T04:24:19;10.00;99.90
9987;DHT22;5033;46.310;11.214;2023-04-24T04:26:48;9.90;99.90
9987;DHT22;5033;46.310;11.214;2023-04-24T04:29:17;9.80;99.90
9987;DHT22;5033;46.310;11.214;2023-04-24T04:31:46;9.60;99.90
9987;DHT22;5033;46.310;11.214;2023-04-24T04:34:13;9.60;99.90
9987;DHT22;5033;46.310;11.214;2023-04-24T04:36:41;9.40;99.90
9987;DHT22;5033;46.310;11.214;2023-04-24T04:39:09;9.20;99.90
9987;DHT22;5033;46.310;11.214;2023-04-24T04:41:36;9.10;99.90
9987;DHT22;5033;46.310;11.214;2023-04-24T04:44:06;9.00;99.90
9987;DHT22;5033;46.310;11.214;2023-04-24T04:46:34;9.00;99.90
9987;DHT22;5033;46.310;11.214;2023-04-24T04:49:04;9.00;99.90
9987;DHT22;5033;46.310;11.214;2023-04-24T04:51:31;9.00;99.90
9987;DHT22;5033;46.310;11.214;2023-04-24T04:53:58;9.00;99.90
9987;DHT22;5033;46.310;11.214;2023-04-24T04:56:25;9.00;99.90
9987;DHT22;5033;46.310;11.214;2023-04-24T04:58:52;9.00;99.90
9987;DHT22;5033;46.310;11.214;2023-04-24T05:01:20;9.00;99.90
9987;DHT22;5033;46.310;11.214;2023-04-24T05:03:49;9.00;99.90
9987;DHT22;5033;46.310;11.214;2023-04-24T05:06:18;9.00;99.90
9987;DHT22;5033;46.310;11.214;2023-04-24T05:08:45;8.90;99.90
9987;DHT22;5033;46.310;11.214;2023-04-24T05:11:12;8.90;99.90
9987;DHT22;5033;46.310;11.214;2023-04-24T05:13:39;8.90;99.90
9987;DHT22;5033;46.310;11.214;2023-04-24T05:16:06;8.90;99.90
9987;DHT22;5033;46.310;11.214;2023-04-24T05:18:34;8.90;99.90
9987;DHT22;5033;46.310;11.214;2023-04-24T05:21:01;8.90;99.90
9987;DHT22;5033;46.310;11.214;2023-04-24T05:23:29;8.80;99.90
9987;DHT22;5033;46.310;11.214;2023-04-24T05:25:56;8.80;99.90
9987;DHT22;5033;46.310;11.214;2023-04-24T05:28:24;8.90;99.90
9987;DHT22;5033;46.310;11.214;2023-04-24T05:30:53;9.00;99.90
9987;DHT22;5033;46.310;11.214;2023-04-24T05:33:21;9.10;99.90
9987;DHT22;5033;46.310;11.214;2023-04-24T05:35:49;9.20;99.90
9987;DHT22;5033;46.310;11.214;2023-04-24T05:38:16;9.30;99.90
9987;DHT22;5033;46.310;11.214;2023-04-24T05:40:46;9.40;99.90
9987;DHT22;5033;46.310;11.214;2023-04-24T05:43:13;9.40;99.90
9987;DHT22;5033;46.310;11.214;2023-04-24T05:45:40;9.40;99.90
9987;DHT22;5033;46.310;11.214;2023-04-24T05:48:07;9.50;99.90
9987;DHT22;5033;46.310;11.214;2023-04-24T05:50:34;9.60;99.90
9987;DHT22;5033;46.310;11.214;2023-04-24T05:53:01;9.60;99.90
9987;DHT22;5033;46.310;11.214;2023-04-24T05:55:29;9.70;99.90
9987;DHT22;5033;46.310;11.214;2023-04-24T05:57:58;9.70;99.90
9987;DHT22;5033;46.310;11.214;2023-04-24T06:00:26;9.80;99.90
9987;DHT22;5033;46.310;11.214;2023-04-24T06:02:54;9.80;99.90
9987;DHT22;5033;46.310;11.214;2023-04-24T06:05:21;9.80;99.90
9987;DHT22;5033;46.310;11.214;2023-04-24T06:07:48;9.90;99.90
9987;DHT22;5033;46.310;11.214;2023-04-24T06:10:16;9.90;99.90
9987;DHT22;5033;46.310;11.214;2023-04-24T06:12:43;10.00;99.90
9987;DHT22;5033;46.310;11.214;2023-04-24T06:15:11;10.00;99.90
9987;DHT22;5033;46.310;11.214;2023-04-24T06:17:40;10.00;99.90
9987;DHT22;5033;46.310;11.214;2023-04-24T06:20:08;10.00;99.90
9987;DHT22;5033;46.310;11.214;2023-04-24T06:22:36;10.00;99.90
9987;DHT22;5033;46.310;11.214;2023-04-24T06:25:06;10.00;99.90
9987;DHT22;5033;46.310;11.214;2023-04-24T06:27:33;10.10;99.90
9987;DHT22;5033;46.310;11.214;2023-04-24T06:30:01;10.10;99.90
9987;DHT22;5033;46.310;11.214;2023-04-24T06:32:30;10.10;99.90
9987;DHT22;5033;46.310;11.214;2023-04-24T06:34:57;10.00;99.90
9987;DHT22;5033;46.310;11.214;2023-04-24T06:37:25;10.00;99.90
9987;DHT22;5033;46.310;11.214;2023-04-24T06:39:52;10.00;99.90
9987;DHT22;5033;46.310;11.214;2023-04-24T06:42:19;10.00;99.90
9987;DHT22;5033;46.310;11.214;2023-04-24T06:44:47;10.00;99.90
9987;DHT22;5033;46.310;11.214;2023-04-24T06:47:14;10.00;99.90
9987;DHT22;5033;46.310;11.214;2023-04-24T06:49:43;9.80;99.90
9987;DHT22;5033;46.310;11.214;2023-04-24T06:52:10;9.80;99.90
9987;DHT22;5033;46.310;11.214;2023-04-24T06:54:37;9.80;99.90
9987;DHT22;5033;46.310;11.214;2023-04-24T06:57:04;9.80;99.90
9987;DHT22;5033;46.310;11.214;2023-04-24T06:59:32;9.90;99.90
9987;DHT22;5033;46.310;11.214;2023-04-24T07:01:58;9.90;99.90
9987;DHT22;5033;46.310;11.214;2023-04-24T07:04:25;9.90;99.90
9987;DHT22;5033;46.310;11.214;2023-04-24T07:06:55;9.90;99.90
9987;DHT22;5033;46.310;11.214;2023-04-24T07:09:25;10.00;99.90
9987;DHT22;5033;46.310;11.214;2023-04-24T07:11:53;10.20;99.90
9987;DHT22;5033;46.310;11.214;2023-04-24T07:14:22;10.20;99.90
9987;DHT22;5033;46.310;11.214;2023-04-24T07:16:49;10.20;99.90
9987;DHT22;5033;46.310;11.214;2023-04-24T07:19:16;10.30;99.90
9987;DHT22;5033;46.310;11.214;2023-04-24T07:21:43;10.30;99.90
9987;DHT22;5033;46.310;11.214;2023-04-24T07:24:12;10.40;99.90
9987;DHT22;5033;46.310;11.214;2023-04-24T07:26:39;10.60;99.90
9987;DHT22;5033;46.310;11.214;2023-04-24T07:29:06;10.70;99.90
9987;DHT22;5033;46.310;11.214;2023-04-24T07:31:33;10.80;99.90
9987;DHT22;5033;46.310;11.214;2023-04-24T07:34:01;10.90;99.90
9987;DHT22;5033;46.310;11.214;2023-04-24T07:36:28;10.90;99.90
9987;DHT22;5033;46.310;11.214;2023-04-24T07:38:55;11.00;99.90
9987;DHT22;5033;46.310;11.214;2023-04-24T07:41:24;11.00;99.90
9987;DHT22;5033;46.310;11.214;2023-04-24T07:43:53;10.90;99.90
9987;DHT22;5033;46.310;11.214;2023-04-24T07:46:20;10.80;99.90
9987;DHT22;5033;46.310;11.214;2023-04-24T07:48:49;10.60;99.90
9987;DHT22;5033;46.310;11.214;2023-04-24T07:51:16;10.60;99.90
9987;DHT22;5033;46.310;11.214;2023-04-24T07:53:43;10.50;99.90
9987;DHT22;5033;46.310;11.214;2023-04-24T07:56:11;10.50;99.90
9987;DHT22;5033;46.310;11.214;2023-04-24T07:58:39;10.50;99.90
9987;DHT22;5033;46.310;11.214;2023-04-24T08:01:06;10.50;99.90
9987;DHT22;5033;46.310;11.214;2023-04-24T08:03:34;10.50;99.90
9987;DHT22;5033;46.310;11.214;2023-04-24T08:06:01;10.50;99.90
9987;DHT22;5033;46.310;11.214;2023-04-24T08:08:28;10.60;99.90
9987;DHT22;5033;46.310;11.214;2023-04-24T08:10:55;10.60;99.90
9987;DHT22;5033;46.310;11.214;2023-04-24T08:13:23;10.50;99.90
9987;DHT22;5033;46.310;11.214;2023-04-24T08:15:51;10.60;99.90
9987;DHT22;5033;46.310;11.214;2023-04-24T08:18:19;10.60;99.90
9987;DHT22;5033;46.310;11.214;2023-04-24T08:20:46;10.70;99.90
9987;DHT22;5033;46.310;11.214;2023-04-24T08:23:13;10.70;99.90
9987;DHT22;5033;46.310;11.214;2023-04-24T08:25:40;10.70;99.90
9987;DHT22;5033;46.310;11.214;2023-04-24T08:28:08;10.70;99.90
9987;DHT22;5033;46.310;11.214;2023-04-24T08:30:36;10.80;99.90
9987;DHT22;5033;46.310;11.214;2023-04-24T08:33:05;10.90;99.90
9987;DHT22;5033;46.310;11.214;2023-04-24T08:35:32;10.90;99.90
9987;DHT22;5033;46.310;11.214;2023-04-24T08:38:00;11.00;99.90
9987;DHT22;5033;46.310;11.214;2023-04-24T08:40:28;11.00;99.90
9987;DHT22;5033;46.310;11.214;2023-04-24T08:42:56;11.00;99.90
9987;DHT22;5033;46.310;11.214;2023-04-24T08:45:24;11.10;99.90
9987;DHT22;5033;46.310;11.214;2023-04-24T08:47:52;11.10;99.90
9987;DHT22;5033;46.310;11.214;2023-04-24T08:50:22;11.20;99.90
9987;DHT22;5033;46.310;11.214;2023-04-24T08:52:51;11.20;99.90
9987;DHT22;5033;46.310;11.214;2023-04-24T08:55:19;11.10;99.90
9987;DHT22;5033;46.310;11.214;2023-04-24T08:57:51;11.00;99.90
9987;DHT22;5033;46.310;11.214;2023-04-24T09:00:20;10.90;99.90
9987;DHT22;5033;46.310;11.214;2023-04-24T09:02:49;10.90;99.90
9987;DHT22;5033;46.310;11.214;2023-04-24T09:05:17;10.90;99.90
9987;DHT22;5033;46.310;11.214;2023-04-24T09:07:49;10.90;99.90
9987;DHT22;5033;46.310;11.214;2023-04-24T09:10:18;10.90;99.90
9987;DHT22;5033;46.310;11.214;2023-04-24T09:12:45;10.90;99.90
9987;DHT22;5033;46.310;11.214;2023-04-24T09:15:13;10.90;99.90
9987;DHT22;5033;46.310;11.214;2023-04-24T09:17:40;11.00;99.90
9987;DHT22;5033;46.310;11.214;2023-04-24T09:20:08;11.10;99.90
9987;DHT22;5033;46.310;11.214;2023-04-24T09:22:36;11.20;99.90
9987;DHT22;5033;46.310;11.214;2023-04-24T09:25:06;11.30;99.90
9987;DHT22;5033;46.310;11.214;2023-04-24T09:27:34;11.30;99.90
9987;DHT22;5033;46.310;11.214;2023-04-24T09:30:02;11.50;99.90
9987;DHT22;5033;46.310;11.214;2023-04-24T09:32:29;11.70;99.90
9987;DHT22;5033;46.310;11.214;2023-04-24T09:35:08;11.80;99.90
9987;DHT22;5033;46.310;11.214;2023-04-24T09:37:36;12.00;99.90
9987;DHT22;5033;46.310;11.214;2023-04-24T09:40:11;11.90;99.90
9987;DHT22;5033;46.310;11.214;2023-04-24T09:42:39;11.90;99.90
9987;DHT22;5033;46.310;11.214;2023-04-24T09:45:09;12.00;99.90
9987;DHT22;5033;46.310;11.214;2023-04-24T09:47:37;12.00;99.90
9987;DHT22;5033;46.310;11.214;2023-04-24T09:50:14;12.10;99.90
9987;DHT22;5033;46.310;11.214;2023-04-24T09:52:43;12.20;99.90
9987;DHT22;5033;46.310;11.214;2023-04-24T09:55:16;12.30;99.90
9987;DHT22;5033;46.310;11.214;2023-04-24T09:57:50;12.40;99.90
9987;DHT22;5033;46.310;11.214;2023-04-24T10:00:21;12.50;99.90
9987;DHT22;5033;46.310;11.214;2023-04-24T10:02:54;12.60;99.90
9987;DHT22;5033;46.310;11.214;2023-04-24T10:05:23;12.70;99.90
9987;DHT22;5033;46.310;11.214;2023-04-24T10:07:52;12.80;99.90
9987;DHT22;5033;46.310;11.214;2023-04-24T10:10:24;13.00;99.90
9987;DHT22;5033;46.310;11.214;2023-04-24T10:12:52;13.30;99.90
9987;DHT22;5033;46.310;11.214;2023-04-24T10:15:20;13.50;99.90
9987;DHT22;5033;46.310;11.214;2023-04-24T10:17:48;13.80;99.90
9987;DHT22;5033;46.310;11.214;2023-04-24T10:20:22;14.00;99.90
9987;DHT22;5033;46.310;11.214;2023-04-24T10:22:51;14.10;99.90
9987;DHT22;5033;46.310;11.214;2023-04-24T10:25:20;14.20;99.90
9987;DHT22;5033;46.310;11.214;2023-04-24T10:27:50;14.40;99.90
9987;DHT22;5033;46.310;11.214;2023-04-24T10:30:19;14.50;99.90
9987;DHT22;5033;46.310;11.214;2023-04-24T10:32:46;14.60;99.90
9987;DHT22;5033;46.310;11.214;2023-04-24T10:35:14;14.70;99.90
9987;DHT22;5033;46.310;11.214;2023-04-24T10:37:45;14.80;99.90
9987;DHT22;5033;46.310;11.214;2023-04-24T10:40:18;14.90;99.90
9987;DHT22;5033;46.310;11.214;2023-04-24T10:42:49;15.00;99.90
9987;DHT22;5033;46.310;11.214;2023-04-24T10:45:18;15.30;99.90
9987;DHT22;5033;46.310;11.214;2023-04-24T10:47:56;15.30;99.90
9987;DHT22;5033;46.310;11.214;2023-04-24T10:50:24;15.50;99.90
9987;DHT22;5033;46.310;11.214;2023-04-24T10:52:51;15.40;99.90
9987;DHT22;5033;46.310;11.214;2023-04-24T10:55:44;15.20;99.90
9987;DHT22;5033;46.310;11.214;2023-04-24T10:58:13;14.90;99.90
9987;DHT22;5033;46.310;11.214;2023-04-24T11:00:42;14.90;99.90
9987;DHT22;5033;46.310;11.214;2023-04-24T11:03:24;15.00;99.90
9987;DHT22;5033;46.310;11.214;2023-04-24T11:05:55;15.00;99.90
9987;DHT22;5033;46.310;11.214;2023-04-24T11:08:24;15.00;99.90
9987;DHT22;5033;46.310;11.214;2023-04-24T11:11:01;15.20;99.90
9987;DHT22;5033;46.310;11.214;2023-04-24T11:14:05;15.20;99.90
9987;DHT22;5033;46.310;11.214;2023-04-24T11:16:35;15.20;99.90
9987;DHT22;5033;46.310;11.214;2023-04-24T11:19:05;15.20;99.90
9987;DHT22;5033;46.310;11.214;2023-04-24T11:21:43;15.10;99.90
9987;DHT22;5033;46.310;11.214;2023-04-24T11:24:30;15.10;99.90
9987;DHT22;5033;46.310;11.214;2023-04-24T11:27:01;15.20;99.90
9987;DHT22;5033;46.310;11.214;2023-04-24T11:29:46;15.40;99.90
9987;DHT22;5033;46.310;11.214;2023-04-24T11:32:27;15.50;99.90
9987;DHT22;5033;46.310;11.214;2023-04-24T11:34:55;15.70;99.90
9987;DHT22;5033;46.310;11.214;2023-04-24T11:37:24;15.70;99.90
9987;DHT22;5033;46.310;11.214;2023-04-24T11:39:54;16.00;99.90
9987;DHT22;5033;46.310;11.214;2023-04-24T11:42:21;16.30;99.90
9987;DHT22;5033;46.310;11.214;2023-04-24T11:44:52;16.70;99.90
9987;DHT22;5033;46.310;11.214;2023-04-24T11:47:19;17.00;99.90
9987;DHT22;5033;46.310;11.214;2023-04-24T11:49:46;17.20;99.90
9987;DHT22;5033;46.310;11.214;2023-04-24T11:52:16;17.30;99.90
9987;DHT22;5033;46.310;11.214;2023-04-24T11:54:48;17.50;99.90
9987;DHT22;5033;46.310;11.214;2023-04-24T11:57:16;17.70;99.90
9987;DHT22;5033;46.310;11.214;2023-04-24T11:59:43;17.80;99.90
9987;DHT22;5033;46.310;11.214;2023-04-24T12:02:21;17.80;99.90
9987;DHT22;5033;46.310;11.214;2023-04-24T12:04:49;17.70;99.90
9987;DHT22;5033;46.310;11.214;2023-04-24T12:07:16;17.80;99.90
9987;DHT22;5033;46.310;11.214;2023-04-24T12:09:44;17.90;99.90
9987;DHT22;5033;46.310;11.214;2023-04-24T12:12:13;17.90;99.90
9987;DHT22;5033;46.310;11.214;2023-04-24T12:14:50;18.10;99.90
9987;DHT22;5033;46.310;11.214;2023-04-24T12:17:24;18.30;99.90
9987;DHT22;5033;46.310;11.214;2023-04-24T12:19:52;18.40;99.90
9987;DHT22;5033;46.310;11.214;2023-04-24T12:22:19;18.30;99.90
9987;DHT22;5033;46.310;11.214;2023-04-24T12:24:57;18.20;99.90
9987;DHT22;5033;46.310;11.214;2023-04-24T12:27:25;18.20;99.90
9987;DHT22;5033;46.310;11.214;2023-04-24T12:29:56;18.10;99.90
9987;DHT22;5033;46.310;11.214;2023-04-24T12:32:25;18.10;99.90
9987;DHT22;5033;46.310;11.214;2023-04-24T12:34:53;17.90;99.90
9987;DHT22;5033;46.310;11.214;2023-04-24T12:37:23;17.90;99.90
9987;DHT22;5033;46.310;11.214;2023-04-24T12:40:05;17.90;99.90
9987;DHT22;5033;46.310;11.214;2023-04-24T12:42:33;17.90;99.90
9987;DHT22;5033;46.310;11.214;2023-04-24T12:45:03;17.80;99.90
9987;DHT22;5033;46.310;11.214;2023-04-24T12:47:32;17.80;99.90
9987;DHT22;5033;46.310;11.214;2023-04-24T12:50:00;17.80;99.90
9987;DHT22;5033;46.310;11.214;2023-04-24T12:52:29;18.10;99.90
9987;DHT22;5033;46.310;11.214;2023-04-24T12:54:58;18.60;99.90
9987;DHT22;5033;46.310;11.214;2023-04-24T12:57:26;18.80;99.90
9987;DHT22;5033;46.310;11.214;2023-04-24T12:59:54;19.10;99.90
9987;DHT22;5033;46.310;11.214;2023-04-24T13:02:22;18.90;99.90
9987;DHT22;5033;46.310;11.214;2023-04-24T13:04:52;18.70;99.90
9987;DHT22;5033;46.310;11.214;2023-04-24T13:07:19;18.80;99.90
9987;DHT22;5033;46.310;11.214;2023-04-24T13:09:48;18.60;99.90
9987;DHT22;5033;46.310;11.214;2023-04-24T13:12:17;18.90;99.90
9987;DHT22;5033;46.310;11.214;2023-04-24T13:14:45;19.00;99.90
9987;DHT22;5033;46.310;11.214;2023-04-24T13:17:14;19.10;99.90
9987;DHT22;5033;46.310;11.214;2023-04-24T13:19:42;19.30;99.90
9987;DHT22;5033;46.310;11.214;2023-04-24T13:22:12;19.20;99.90
9987;DHT22;5033;46.310;11.214;2023-04-24T13:24:39;19.10;99.90
9987;DHT22;5033;46.310;11.214;2023-04-24T13:27:07;19.10;99.90
9987;DHT22;5033;46.310;11.214;2023-04-24T13:29:34;19.10;99.90
9987;DHT22;5033;46.310;11.214;2023-04-24T13:32:02;19.10;99.90
9987;DHT22;5033;46.310;11.214;2023-04-24T13:34:29;19.20;99.90
9987;DHT22;5033;46.310;11.214;2023-04-24T13:36:57;19.40;99.90
9987;DHT22;5033;46.310;11.214;2023-04-24T13:39:26;19.50;99.90
9987;DHT22;5033;46.310;11.214;2023-04-24T13:41:53;19.70;99.90
9987;DHT22;5033;46.310;11.214;2023-04-24T13:44:21;19.60;99.90
9987;DHT22;5033;46.310;11.214;2023-04-24T13:46:50;19.10;99.90
9987;DHT22;5033;46.310;11.214;2023-04-24T13:49:20;18.90;99.90
9987;DHT22;5033;46.310;11.214;2023-04-24T13:51:50;18.80;99.90
9987;DHT22;5033;46.310;11.214;2023-04-24T13:54:18;19.00;99.90
9987;DHT22;5033;46.310;11.214;2023-04-24T13:56:47;19.30;99.90
9987;DHT22;5033;46.310;11.214;2023-04-24T13:59:14;19.50;99.90
9987;DHT22;5033;46.310;11.214;2023-04-24T14:01:41;19.90;99.90
9987;DHT22;5033;46.310;11.214;2023-04-24T14:04:10;20.20;99.90
9987;DHT22;5033;46.310;11.214;2023-04-24T14:06:37;19.90;99.90
9987;DHT22;5033;46.310;11.214;2023-04-24T14:09:05;19.50;99.90
9987;DHT22;5033;46.310;11.214;2023-04-24T14:11:33;19.20;99.90
9987;DHT22;5033;46.310;11.214;2023-04-24T14:14:03;18.80;99.90
9987;DHT22;5033;46.310;11.214;2023-04-24T14:16:30;18.80;99.90
9987;DHT22;5033;46.310;11.214;2023-04-24T14:18:57;18.70;99.90
9987;DHT22;5033;46.310;11.214;2023-04-24T14:21:24;18.60;99.90
9987;DHT22;5033;46.310;11.214;2023-04-24T14:23:51;18.60;99.90
9987;DHT22;5033;46.310;11.214;2023-04-24T14:26:19;18.50;99.90
9987;DHT22;5033;46.310;11.214;2023-04-24T14:28:47;18.40;99.90
9987;DHT22;5033;46.310;11.214;2023-04-24T14:31:15;18.50;99.90
9987;DHT22;5033;46.310;11.214;2023-04-24T14:33:42;18.80;99.90
9987;DHT22;5033;46.310;11.214;2023-04-24T14:36:10;19.00;99.90
9987;DHT22;5033;46.310;11.214;2023-04-24T14:38:37;19.10;99.90
9987;DHT22;5033;46.310;11.214;2023-04-24T14:41:04;19.10;99.90
9987;DHT22;5033;46.310;11.214;2023-04-24T14:43:35;19.00;99.90
9987;DHT22;5033;46.310;11.214;2023-04-24T14:46:02;18.90;99.90
9987;DHT22;5033;46.310;11.214;2023-04-24T14:48:31;18.60;99.90
9987;DHT22;5033;46.310;11.214;2023-04-24T14:50:57;18.60;99.90
9987;DHT22;5033;46.310;11.214;2023-04-24T14:53:25;18.60;99.90
9987;DHT22;5033;46.310;11.214;2023-04-24T14:55:53;18.60;99.90
9987;DHT22;5033;46.310;11.214;2023-04-24T14:58:20;18.60;99.90
9987;DHT22;5033;46.310;11.214;2023-04-24T15:00:47;18.60;99.90
9987;DHT22;5033;46.310;11.214;2023-04-24T15:03:18;18.60;99.90
9987;DHT22;5033;46.310;11.214;2023-04-24T15:05:48;18.40;99.90
9987;DHT22;5033;46.310;11.214;2023-04-24T15:08:15;18.40;99.90
9987;DHT22;5033;46.310;11.214;2023-04-24T15:10:42;18.80;99.90
9987;DHT22;5033;46.310;11.214;2023-04-24T15:13:10;19.20;99.90
9987;DHT22;5033;46.310;11.214;2023-04-24T15:15:38;19.50;99.90
9987;DHT22;5033;46.310;11.214;2023-04-24T15:18:07;19.30;99.90
9987;DHT22;5033;46.310;11.214;2023-04-24T15:20:36;19.30;99.90
9987;DHT22;5033;46.310;11.214;2023-04-24T15:23:06;19.40;99.90
9987;DHT22;5033;46.310;11.214;2023-04-24T15:25:34;19.30;99.90
9987;DHT22;5033;46.310;11.214;2023-04-24T15:28:01;19.30;99.90
9987;DHT22;5033;46.310;11.214;2023-04-24T15:30:29;19.20;99.90
9987;DHT22;5033;46.310;11.214;2023-04-24T15:32:56;18.90;99.90
9987;DHT22;5033;46.310;11.214;2023-04-24T15:35:23;18.50;99.90
9987;DHT22;5033;46.310;11.214;2023-04-24T15:37:50;18.10;99.90
9987;DHT22;5033;46.310;11.214;2023-04-24T15:40:19;17.90;99.90
9987;DHT22;5033;46.310;11.214;2023-04-24T15:42:46;17.90;99.90
9987;DHT22;5033;46.310;11.214;2023-04-24T15:45:13;17.90;99.90
9987;DHT22;5033;46.310;11.214;2023-04-24T15:47:40;18.00;99.90
9987;DHT22;5033;46.310;11.214;2023-04-24T15:50:08;17.90;99.90
9987;DHT22;5033;46.310;11.214;2023-04-24T15:52:36;18.00;99.90
9987;DHT22;5033;46.310;11.214;2023-04-24T15:55:04;18.00;99.90